sensor_id;sensor_type;location;lat;lon;timestamp;pressure;altitude;pressure_sealevel;temperature;humidity
15050;BME280;7622;42.724;23.250;2022-09-21T00:01:53;94832.44;;;11.00;100.00
15050;BME280;7622;42.724;23.250;2022-09-21T00:04:20;94837.25;;;10.95;100.00
15050;BME280;7622;42.724;23.250;2022-09-21T00:06:47;94845.47;;;10.81;100.00
15050;BME280;7622;42.724;23.250;2022-09-21T00:09:13;94835.41;;;10.58;100.00
15050;BME280;7622;42.724;23.250;2022-09-21T00:11:42;94836.81;;;10.43;100.00
15050;BME280;7622;42.724;23.250;2022-09-21T00:14:10;94823.41;;;10.09;100.00
15050;BME280;7622;42.724;23.250;2022-09-21T00:16:38;94832.72;;;10.21;100.00
15050;BME280;7622;42.724;23.250;2022-09-21T00:19:05;94828.03;;;10.15;100.00
15050;BME280;7622;42.724;23.250;2022-09-21T00:21:32;94834.44;;;10.11;100.00
15050;BME280;7622;42.724;23.250;2022-09-21T00:24:00;94830.19;;;9.91;100.00
15050;BME280;7622;42.724;23.250;2022-09-21T00:26:28;94838.94;;;9.80;100.00
15050;BME280;7622;42.724;23.250;2022-09-21T00:28:58;94832.06;;;9.60;100.00
15050;BME280;7622;42.724;23.250;2022-09-21T00:31:25;94827.94;;;9.48;100.00
15050;BME280;7622;42.724;23.250;2022-09-21T00:33:52;94838.41;;;9.37;100.00
15050;BME280;7622;42.724;23.250;2022-09-21T00:36:22;94830.06;;;9.24;100.00
15050;BME280;7622;42.724;23.250;2022-09-21T00:38:49;94835.38;;;8.92;100.00
15050;BME280;7622;42.724;23.250;2022-09-21T00:41:17;94840.59;;;9.01;100.00
15050;BME280;7622;42.724;23.250;2022-09-21T00:43:46;94839.22;;;8.97;100.00
15050;BME280;7622;42.724;23.250;2022-09-21T00:46:20;94837.22;;;8.80;100.00
15050;BME280;7622;42.724;23.250;2022-09-21T00:48:51;94748.28;;;8.40;100.00
15050;BME280;7622;42.724;23.250;2022-09-21T00:51:17;94830.22;;;8.71;100.00
15050;BME280;7622;42.724;23.250;2022-09-21T00:53:45;94797.88;;;8.65;100.00
15050;BME280;7622;42.724;23.250;2022-09-21T00:56:14;94821.31;;;8.85;100.00
15050;BME280;7622;42.724;23.250;2022-09-21T00:58:43;94829.09;;;8.94;100.00
15050;BME280;7622;42.724;23.250;2022-09-21T01:01:12;94831.91;;;8.82;100.00
15050;BME280;7622;42.724;23.250;2022-09-21T01:03:42;94830.06;;;8.93;100.00
15050;BME280;7622;42.724;23.250;2022-09-21T01:06:10;94829.84;;;8.76;100.00
15050;BME280;7622;42.724;23.250;2022-09-21T01:08:38;94833.69;;;8.81;100.00
15050;BME280;7622;42.724;23.250;2022-09-21T01:11:20;94833.38;;;8.75;100.00
15050;BME280;7622;42.724;23.250;2022-09-21T01:14:03;94832.81;;;8.71;100.00
15050;BME280;7622;42.724;23.250;2022-09-21T01:16:42;94824.69;;;8.55;100.00
15050;BME280;7622;42.724;23.250;2022-09-21T01:19:26;94825.63;;;8.54;100.00
15050;BME280;7622;42.724;23.250;2022-09-21T01:22:04;94823.63;;;8.57;100.00
15050;BME280;7622;42.724;23.250;2022-09-21T01:24:50;94822.09;;;8.55;100.00
15050;BME280;7622;42.724;23.250;2022-09-21T01:27:37;94813.69;;;8.42;100.00
15050;BME280;7622;42.724;23.250;2022-09-21T01:30:10;94808.69;;;8.71;100.00
15050;BME280;7622;42.724;23.250;2022-09-21T01:32:41;94801.63;;;8.52;100.00
15050;BME280;7622;42.724;23.250;2022-09-21T01:35:15;94801.19;;;8.47;100.00
15050;BME280;7622;42.724;23.250;2022-09-21T01:37:46;94782.53;;;8.74;100.00
15050;BME280;7622;42.724;23.250;2022-09-21T01:40:18;94806.56;;;8.55;100.00
15050;BME280;7622;42.724;23.250;2022-09-21T01:42:47;94806.09;;;8.29;100.00
15050;BME280;7622;42.724;23.250;2022-09-21T01:45:20;94807.47;;;8.12;100.00
15050;BME280;7622;42.724;23.250;2022-09-21T01:47:49;94813.50;;;8.34;100.00
15050;BME280;7622;42.724;23.250;2022-09-21T01:50:18;94799.91;;;8.20;100.00
15050;BME280;7622;42.724;23.250;2022-09-21T01:52:49;94807.28;;;8.36;100.00
15050;BME280;7622;42.724;23.250;2022-09-21T01:55:21;94808.44;;;8.53;100.00
15050;BME280;7622;42.724;23.250;2022-09-21T01:57:55;94810.69;;;8.67;100.00
15050;BME280;7622;42.724;23.250;2022-09-21T02:00:24;94797.50;;;8.70;100.00
15050;BME280;7622;42.724;23.250;2022-09-21T02:02:53;94805.72;;;8.75;100.00
15050;BME280;7622;42.724;23.250;2022-09-21T02:05:24;94810.78;;;8.77;100.00
15050;BME280;7622;42.724;23.250;2022-09-21T02:07:52;94805.38;;;8.89;100.00
15050;BME280;7622;42.724;23.250;2022-09-21T02:10:21;94810.28;;;8.92;100.00
15050;BME280;7622;42.724;23.250;2022-09-21T02:12:52;94814.88;;;9.09;100.00
15050;BME280;7622;42.724;23.250;2022-09-21T02:15:28;94813.91;;;8.80;100.00
15050;BME280;7622;42.724;23.250;2022-09-21T02:18:04;94815.47;;;8.41;100.00
15050;BME280;7622;42.724;23.250;2022-09-21T02:20:35;94818.22;;;8.70;100.00
15050;BME280;7622;42.724;23.250;2022-09-21T02:23:09;94822.00;;;8.66;100.00
15050;BME280;7622;42.724;23.250;2022-09-21T02:25:44;94816.16;;;8.64;100.00
15050;BME280;7622;42.724;23.250;2022-09-21T02:28:22;94817.16;;;8.52;100.00
15050;BME280;7622;42.724;23.250;2022-09-21T02:30:58;94813.94;;;8.59;100.00
15050;BME280;7622;42.724;23.250;2022-09-21T02:33:30;94818.75;;;8.43;100.00
15050;BME280;7622;42.724;23.250;2022-09-21T02:36:04;94828.13;;;8.44;100.00
15050;BME280;7622;42.724;23.250;2022-09-21T02:38:36;94810.13;;;8.22;100.00
15050;BME280;7622;42.724;23.250;2022-09-21T02:41:09;94814.25;;;8.66;100.00
15050;BME280;7622;42.724;23.250;2022-09-21T02:43:42;94813.06;;;8.70;100.00
15050;BME280;7622;42.724;23.250;2022-09-21T02:46:15;94814.41;;;8.74;100.00
15050;BME280;7622;42.724;23.250;2022-09-21T02:48:46;94822.28;;;8.63;100.00
15050;BME280;7622;42.724;23.250;2022-09-21T02:51:18;94811.72;;;8.55;100.00
15050;BME280;7622;42.724;23.250;2022-09-21T02:53:48;94818.28;;;8.59;100.00
15050;BME280;7622;42.724;23.250;2022-09-21T02:56:16;94816.63;;;8.58;100.00
15050;BME280;7622;42.724;23.250;2022-09-21T02:58:46;94816.78;;;8.77;100.00
15050;BME280;7622;42.724;23.250;2022-09-21T03:01:16;94816.41;;;8.61;100.00
15050;BME280;7622;42.724;23.250;2022-09-21T03:03:44;94812.09;;;8.71;100.00
15050;BME280;7622;42.724;23.250;2022-09-21T03:06:11;94818.47;;;8.67;100.00
15050;BME280;7622;42.724;23.250;2022-09-21T03:08:37;94816.72;;;8.67;100.00
15050;BME280;7622;42.724;23.250;2022-09-21T03:11:04;94820.94;;;8.68;100.00
15050;BME280;7622;42.724;23.250;2022-09-21T03:13:31;94815.69;;;8.59;100.00
15050;BME280;7622;42.724;23.250;2022-09-21T03:15:59;94819.22;;;8.58;100.00
15050;BME280;7622;42.724;23.250;2022-09-21T03:18:28;94824.72;;;8.44;100.00
15050;BME280;7622;42.724;23.250;2022-09-21T03:20:54;94812.03;;;8.61;100.00
15050;BME280;7622;42.724;23.250;2022-09-21T03:23:21;94821.75;;;8.69;100.00
15050;BME280;7622;42.724;23.250;2022-09-21T03:25:49;94820.34;;;8.65;100.00
15050;BME280;7622;42.724;23.250;2022-09-21T03:28:17;94818.59;;;8.65;100.00
15050;BME280;7622;42.724;23.250;2022-09-21T03:30:44;94792.16;;;8.20;100.00
15050;BME280;7622;42.724;23.250;2022-09-21T03:33:12;94826.72;;;8.19;100.00
15050;BME280;7622;42.724;23.250;2022-09-21T03:35:43;94825.06;;;8.50;100.00
15050;BME280;7622;42.724;23.250;2022-09-21T03:38:11;94815.34;;;8.63;100.00
15050;BME280;7622;42.724;23.250;2022-09-21T03:40:38;94818.59;;;8.45;100.00
15050;BME280;7622;42.724;23.250;2022-09-21T03:43:05;94823.44;;;8.49;100.00
15050;BME280;7622;42.724;23.250;2022-09-21T03:45:33;94825.44;;;8.46;100.00
15050;BME280;7622;42.724;23.250;2022-09-21T03:48:02;94831.13;;;8.40;100.00
15050;BME280;7622;42.724;23.250;2022-09-21T03:50:31;94829.59;;;8.37;100.00
15050;BME280;7622;42.724;23.250;2022-09-21T03:52:59;94827.66;;;8.18;100.00
15050;BME280;7622;42.724;23.250;2022-09-21T03:55:26;94831.13;;;8.08;100.00
15050;BME280;7622;42.724;23.250;2022-09-21T03:57:54;94836.97;;;8.10;100.00
15050;BME280;7622;42.724;23.250;2022-09-21T04:00:21;94829.94;;;8.12;100.00
15050;BME280;7622;42.724;23.250;2022-09-21T04:02:47;94826.97;;;8.16;100.00
15050;BME280;7622;42.724;23.250;2022-09-21T04:05:15;94826.16;;;8.16;100.00
15050;BME280;7622;42.724;23.250;2022-09-21T04:07:43;94830.44;;;8.26;100.00
15050;BME280;7622;42.724;23.250;2022-09-21T04:10:14;94835.50;;;8.28;100.00
15050;BME280;7622;42.724;23.250;2022-09-21T04:12:41;94835.84;;;8.23;100.00
15050;BME280;7622;42.724;23.250;2022-09-21T04:15:09;94836.13;;;8.20;100.00
15050;BME280;7622;42.724;23.250;2022-09-21T04:17:36;94839.84;;;8.27;100.00
15050;BME280;7622;42.724;23.250;2022-09-21T04:20:04;94831.75;;;8.00;100.00
15050;BME280;7622;42.724;23.250;2022-09-21T04:22:31;94833.28;;;8.23;100.00
15050;BME280;7622;42.724;23.250;2022-09-21T04:24:57;94824.25;;;8.50;100.00
15050;BME280;7622;42.724;23.250;2022-09-21T04:27:27;94821.50;;;9.33;100.00
15050;BME280;7622;42.724;23.250;2022-09-21T04:29:53;94824.72;;;9.84;100.00
15050;BME280;7622;42.724;23.250;2022-09-21T04:32:20;94822.00;;;10.53;100.00
15050;BME280;7622;42.724;23.250;2022-09-21T04:34:47;94835.59;;;10.94;100.00
15050;BME280;7622;42.724;23.250;2022-09-21T04:37:13;94841.25;;;11.26;100.00
15050;BME280;7622;42.724;23.250;2022-09-21T04:39:40;94847.13;;;11.56;100.00
15050;BME280;7622;42.724;23.250;2022-09-21T04:42:08;94842.16;;;11.62;100.00
15050;BME280;7622;42.724;23.250;2022-09-21T04:44:36;94842.75;;;11.83;100.00
15050;BME280;7622;42.724;23.250;2022-09-21T04:47:03;94844.09;;;11.88;100.00
15050;BME280;7622;42.724;23.250;2022-09-21T04:49:30;94842.94;;;12.00;100.00
15050;BME280;7622;42.724;23.250;2022-09-21T04:51:58;94846.03;;;11.58;100.00
15050;BME280;7622;42.724;23.250;2022-09-21T04:54:25;94846.75;;;11.14;100.00
15050;BME280;7622;42.724;23.250;2022-09-21T04:56:51;94848.56;;;11.13;100.00
15050;BME280;7622;42.724;23.250;2022-09-21T04:59:18;94853.00;;;11.30;100.00
15050;BME280;7622;42.724;23.250;2022-09-21T05:01:46;94850.59;;;11.47;100.00
15050;BME280;7622;42.724;23.250;2022-09-21T05:04:13;94851.19;;;11.03;100.00
15050;BME280;7622;42.724;23.250;2022-09-21T05:06:40;94851.50;;;10.81;100.00
15050;BME280;7622;42.724;23.250;2022-09-21T05:09:07;94838.38;;;10.83;100.00
15050;BME280;7622;42.724;23.250;2022-09-21T05:11:52;94849.50;;;11.12;100.00
15050;BME280;7622;42.724;23.250;2022-09-21T05:14:19;94859.81;;;10.94;100.00
15050;BME280;7622;42.724;23.250;2022-09-21T05:16:47;94856.44;;;10.65;100.00
15050;BME280;7622;42.724;23.250;2022-09-21T05:19:14;94855.88;;;10.81;100.00
15050;BME280;7622;42.724;23.250;2022-09-21T05:21:40;94855.88;;;10.90;100.00
15050;BME280;7622;42.724;23.250;2022-09-21T05:24:08;94862.84;;;10.90;100.00
15050;BME280;7622;42.724;23.250;2022-09-21T05:26:34;94854.13;;;11.18;100.00
15050;BME280;7622;42.724;23.250;2022-09-21T05:29:02;94854.38;;;11.25;100.00
15050;BME280;7622;42.724;23.250;2022-09-21T05:31:38;94859.53;;;11.34;100.00
15050;BME280;7622;42.724;23.250;2022-09-21T05:34:20;94849.59;;;11.20;100.00
15050;BME280;7622;42.724;23.250;2022-09-21T05:36:57;94853.81;;;11.31;100.00
15050;BME280;7622;42.724;23.250;2022-09-21T05:39:26;94853.22;;;11.74;100.00
15050;BME280;7622;42.724;23.250;2022-09-21T05:41:54;94863.44;;;11.85;100.00
15050;BME280;7622;42.724;23.250;2022-09-21T05:44:21;94853.69;;;11.87;100.00
15050;BME280;7622;42.724;23.250;2022-09-21T05:46:54;94850.38;;;11.67;100.00
15050;BME280;7622;42.724;23.250;2022-09-21T05:49:33;94850.94;;;11.61;100.00
15050;BME280;7622;42.724;23.250;2022-09-21T05:52:06;94839.50;;;11.44;100.00
15050;BME280;7622;42.724;23.250;2022-09-21T05:54:44;94843.34;;;11.13;100.00
15050;BME280;7622;42.724;23.250;2022-09-21T05:57:21;94848.84;;;11.37;100.00
15050;BME280;7622;42.724;23.250;2022-09-21T06:00:00;94824.28;;;11.22;100.00
15050;BME280;7622;42.724;23.250;2022-09-21T06:02:43;94851.72;;;11.34;100.00
15050;BME280;7622;42.724;23.250;2022-09-21T06:05:16;94853.44;;;11.53;100.00
15050;BME280;7622;42.724;23.250;2022-09-21T06:07:43;94855.13;;;11.44;100.00
15050;BME280;7622;42.724;23.250;2022-09-21T06:10:11;94861.81;;;11.20;100.00
15050;BME280;7622;42.724;23.250;2022-09-21T06:12:39;94862.31;;;11.23;100.00
15050;BME280;7622;42.724;23.250;2022-09-21T06:15:08;94864.19;;;11.40;100.00
15050;BME280;7622;42.724;23.250;2022-09-21T06:17:36;94870.19;;;11.41;100.00
15050;BME280;7622;42.724;23.250;2022-09-21T06:20:03;94866.25;;;11.74;100.00
15050;BME280;7622;42.724;23.250;2022-09-21T06:22:33;94731.44;;;10.78;100.00
15050;BME280;7622;42.724;23.250;2022-09-21T06:25:00;94870.84;;;12.07;100.00
15050;BME280;7622;42.724;23.250;2022-09-21T06:27:27;94870.19;;;12.23;100.00
15050;BME280;7622;42.724;23.250;2022-09-21T06:29:53;94867.13;;;12.10;100.00
15050;BME280;7622;42.724;23.250;2022-09-21T06:32:20;94860.41;;;12.25;100.00
15050;BME280;7622;42.724;23.250;2022-09-21T06:34:47;94861.47;;;12.14;100.00
15050;BME280;7622;42.724;23.250;2022-09-21T06:37:14;94871.47;;;12.80;100.00
15050;BME280;7622;42.724;23.250;2022-09-21T06:39:42;94873.69;;;12.93;100.00
15050;BME280;7622;42.724;23.250;2022-09-21T06:42:09;94871.78;;;13.03;100.00
15050;BME280;7622;42.724;23.250;2022-09-21T06:44:36;94874.47;;;12.85;100.00
15050;BME280;7622;42.724;23.250;2022-09-21T06:47:03;94879.91;;;13.18;100.00
15050;BME280;7622;42.724;23.250;2022-09-21T06:49:30;94871.31;;;12.99;100.00
15050;BME280;7622;42.724;23.250;2022-09-21T06:51:56;94877.22;;;13.10;100.00
15050;BME280;7622;42.724;23.250;2022-09-21T06:54:23;94883.81;;;13.14;100.00
15050;BME280;7622;42.724;23.250;2022-09-21T06:56:52;94887.75;;;13.00;100.00
15050;BME280;7622;42.724;23.250;2022-09-21T06:59:19;94884.81;;;12.77;100.00
15050;BME280;7622;42.724;23.250;2022-09-21T07:01:46;94875.81;;;12.54;100.00
15050;BME280;7622;42.724;23.250;2022-09-21T07:04:12;94885.78;;;12.76;100.00
15050;BME280;7622;42.724;23.250;2022-09-21T07:06:39;94884.63;;;12.96;100.00
15050;BME280;7622;42.724;23.250;2022-09-21T07:09:06;94880.09;;;12.98;100.00
15050;BME280;7622;42.724;23.250;2022-09-21T07:11:32;94881.56;;;13.19;100.00
15050;BME280;7622;42.724;23.250;2022-09-21T07:14:00;94888.38;;;13.46;100.00
15050;BME280;7622;42.724;23.250;2022-09-21T07:16:28;94846.69;;;13.20;100.00
15050;BME280;7622;42.724;23.250;2022-09-21T07:18:55;94884.34;;;13.51;100.00
15050;BME280;7622;42.724;23.250;2022-09-21T07:21:22;94894.88;;;13.67;100.00
15050;BME280;7622;42.724;23.250;2022-09-21T07:23:48;94881.41;;;13.88;100.00
15050;BME280;7622;42.724;23.250;2022-09-21T07:26:15;94879.53;;;13.72;100.00
15050;BME280;7622;42.724;23.250;2022-09-21T07:28:42;94880.56;;;13.79;100.00
15050;BME280;7622;42.724;23.250;2022-09-21T07:31:12;94883.97;;;13.80;100.00
15050;BME280;7622;42.724;23.250;2022-09-21T07:33:39;94885.88;;;13.62;100.00
15050;BME280;7622;42.724;23.250;2022-09-21T07:36:07;94819.44;;;12.96;100.00
15050;BME280;7622;42.724;23.250;2022-09-21T07:38:36;94900.06;;;13.33;100.00
15050;BME280;7622;42.724;23.250;2022-09-21T07:41:04;94894.38;;;13.38;100.00
15050;BME280;7622;42.724;23.250;2022-09-21T07:43:30;94890.13;;;13.71;100.00
15050;BME280;7622;42.724;23.250;2022-09-21T07:45:58;94884.84;;;13.89;100.00
15050;BME280;7622;42.724;23.250;2022-09-21T07:48:27;94895.59;;;13.86;100.00
15050;BME280;7622;42.724;23.250;2022-09-21T07:50:59;94887.44;;;13.97;100.00
15050;BME280;7622;42.724;23.250;2022-09-21T07:53:28;94877.09;;;14.29;100.00
15050;BME280;7622;42.724;23.250;2022-09-21T07:56:00;94882.09;;;14.65;100.00
15050;BME280;7622;42.724;23.250;2022-09-21T07:58:26;94891.72;;;14.56;100.00
15050;BME280;7622;42.724;23.250;2022-09-21T08:01:11;94888.94;;;14.66;100.00
15050;BME280;7622;42.724;23.250;2022-09-21T08:03:39;94869.66;;;14.67;100.00
15050;BME280;7622;42.724;23.250;2022-09-21T08:06:06;94883.38;;;14.69;100.00
15050;BME280;7622;42.724;23.250;2022-09-21T08:08:33;94882.91;;;14.65;100.00
15050;BME280;7622;42.724;23.250;2022-09-21T08:11:04;94882.88;;;14.81;100.00
15050;BME280;7622;42.724;23.250;2022-09-21T08:13:31;94876.53;;;15.00;100.00
15050;BME280;7622;42.724;23.250;2022-09-21T08:15:58;94883.50;;;15.24;100.00
15050;BME280;7622;42.724;23.250;2022-09-21T08:18:25;94878.13;;;15.17;100.00
15050;BME280;7622;42.724;23.250;2022-09-21T08:20:54;94874.88;;;14.99;100.00
15050;BME280;7622;42.724;23.250;2022-09-21T08:23:21;94889.91;;;15.05;100.00
15050;BME280;7622;42.724;23.250;2022-09-21T08:25:48;94876.47;;;15.16;100.00
15050;BME280;7622;42.724;23.250;2022-09-21T08:28:15;94882.69;;;15.23;100.00
15050;BME280;7622;42.724;23.250;2022-09-21T08:30:42;94878.47;;;15.14;100.00
15050;BME280;7622;42.724;23.250;2022-09-21T08:33:09;94874.19;;;15.21;100.00
15050;BME280;7622;42.724;23.250;2022-09-21T08:35:36;94866.97;;;15.31;100.00
15050;BME280;7622;42.724;23.250;2022-09-21T08:38:04;94865.03;;;15.89;100.00
15050;BME280;7622;42.724;23.250;2022-09-21T08:40:31;94867.78;;;15.95;100.00
15050;BME280;7622;42.724;23.250;2022-09-21T08:43:02;94859.56;;;15.51;100.00
15050;BME280;7622;42.724;23.250;2022-09-21T08:45:32;94867.66;;;15.81;99.82
15050;BME280;7622;42.724;23.250;2022-09-21T08:48:04;94865.00;;;16.20;98.67
15050;BME280;7622;42.724;23.250;2022-09-21T08:50:38;94859.69;;;16.36;100.00
15050;BME280;7622;42.724;23.250;2022-09-21T08:53:12;94854.16;;;16.31;100.00
15050;BME280;7622;42.724;23.250;2022-09-21T08:55:41;94849.06;;;16.29;96.71
15050;BME280;7622;42.724;23.250;2022-09-21T08:58:19;94831.78;;;16.43;95.31
15050;BME280;7622;42.724;23.250;2022-09-21T09:00:49;94849.66;;;16.17;97.54
15050;BME280;7622;42.724;23.250;2022-09-21T09:03:41;94844.13;;;16.57;96.46
15050;BME280;7622;42.724;23.250;2022-09-21T09:06:17;94838.34;;;16.39;98.27
15050;BME280;7622;42.724;23.250;2022-09-21T09:08:58;94840.69;;;16.57;99.11
15050;BME280;7622;42.724;23.250;2022-09-21T09:11:39;94837.56;;;16.61;95.63
15050;BME280;7622;42.724;23.250;2022-09-21T09:14:20;94832.53;;;16.29;96.32
15050;BME280;7622;42.724;23.250;2022-09-21T09:17:02;94836.03;;;16.67;94.46
15050;BME280;7622;42.724;23.250;2022-09-21T09:19:41;94830.34;;;16.63;93.28
15050;BME280;7622;42.724;23.250;2022-09-21T09:22:13;94837.91;;;16.58;92.65
15050;BME280;7622;42.724;23.250;2022-09-21T09:24:46;94823.88;;;16.88;91.78
15050;BME280;7622;42.724;23.250;2022-09-21T09:27:19;94818.81;;;16.72;91.75
15050;BME280;7622;42.724;23.250;2022-09-21T09:29:54;94821.22;;;16.51;90.58
15050;BME280;7622;42.724;23.250;2022-09-21T09:32:28;94824.63;;;16.37;91.65
15050;BME280;7622;42.724;23.250;2022-09-21T09:35:03;94816.25;;;16.64;89.61
15050;BME280;7622;42.724;23.250;2022-09-21T09:37:32;94763.72;;;16.72;85.26
15050;BME280;7622;42.724;23.250;2022-09-21T09:40:05;94808.06;;;16.97;88.47
15050;BME280;7622;42.724;23.250;2022-09-21T09:42:44;94805.75;;;17.16;87.72
15050;BME280;7622;42.724;23.250;2022-09-21T09:45:29;94741.97;;;16.41;89.86
15050;BME280;7622;42.724;23.250;2022-09-21T09:48:07;94802.81;;;16.59;86.69
15050;BME280;7622;42.724;23.250;2022-09-21T09:50:40;94805.94;;;16.54;86.58
15050;BME280;7622;42.724;23.250;2022-09-21T09:53:10;94801.53;;;16.78;87.60
15050;BME280;7622;42.724;23.250;2022-09-21T09:55:41;94799.03;;;16.99;85.03
15050;BME280;7622;42.724;23.250;2022-09-21T09:58:17;94802.22;;;17.24;81.13
15050;BME280;7622;42.724;23.250;2022-09-21T10:00:45;94803.22;;;17.52;80.96
15050;BME280;7622;42.724;23.250;2022-09-21T10:03:15;94800.22;;;17.55;79.08
15050;BME280;7622;42.724;23.250;2022-09-21T10:05:44;94798.22;;;18.23;74.31
15050;BME280;7622;42.724;23.250;2022-09-21T10:08:28;94789.84;;;19.04;66.56
15050;BME280;7622;42.724;23.250;2022-09-21T10:10:57;94785.69;;;19.51;61.37
15050;BME280;7622;42.724;23.250;2022-09-21T10:13:26;94776.28;;;19.70;60.90
15050;BME280;7622;42.724;23.250;2022-09-21T10:15:56;94775.00;;;20.20;59.85
15050;BME280;7622;42.724;23.250;2022-09-21T10:18:25;94777.47;;;19.67;60.43
15050;BME280;7622;42.724;23.250;2022-09-21T10:20:58;94755.69;;;19.17;61.27
15050;BME280;7622;42.724;23.250;2022-09-21T10:23:27;94763.19;;;20.02;57.92
15050;BME280;7622;42.724;23.250;2022-09-21T10:26:02;94766.78;;;20.82;55.15
15050;BME280;7622;42.724;23.250;2022-09-21T10:28:30;94766.13;;;21.33;51.58
15050;BME280;7622;42.724;23.250;2022-09-21T10:31:15;94762.88;;;21.50;50.69
15050;BME280;7622;42.724;23.250;2022-09-21T10:33:49;94766.53;;;21.43;50.77
15050;BME280;7622;42.724;23.250;2022-09-21T10:36:29;94766.28;;;21.64;48.59
15050;BME280;7622;42.724;23.250;2022-09-21T10:39:15;94759.03;;;21.33;47.31
15050;BME280;7622;42.724;23.250;2022-09-21T10:41:51;94760.25;;;21.24;49.94
15050;BME280;7622;42.724;23.250;2022-09-21T10:44:20;94756.41;;;21.00;46.62
15050;BME280;7622;42.724;23.250;2022-09-21T10:46:48;94752.94;;;21.13;47.49
15050;BME280;7622;42.724;23.250;2022-09-21T10:49:19;94750.72;;;20.97;51.45
15050;BME280;7622;42.724;23.250;2022-09-21T10:51:48;94743.19;;;21.07;52.88
15050;BME280;7622;42.724;23.250;2022-09-21T10:54:20;94747.69;;;21.00;52.63
15050;BME280;7622;42.724;23.250;2022-09-21T10:56:56;94743.81;;;20.63;51.64
15050;BME280;7622;42.724;23.250;2022-09-21T10:59:26;94747.56;;;19.94;51.03
15050;BME280;7622;42.724;23.250;2022-09-21T11:01:54;94753.28;;;20.11;49.70
15050;BME280;7622;42.724;23.250;2022-09-21T11:04:27;94742.81;;;20.57;49.01
15050;BME280;7622;42.724;23.250;2022-09-21T11:07:01;94743.44;;;20.59;48.26
15050;BME280;7622;42.724;23.250;2022-09-21T11:09:34;94733.88;;;20.58;47.56
15050;BME280;7622;42.724;23.250;2022-09-21T11:12:11;94723.69;;;20.29;48.56
15050;BME280;7622;42.724;23.250;2022-09-21T11:14:48;94733.38;;;20.09;50.09
15050;BME280;7622;42.724;23.250;2022-09-21T11:17:23;94735.00;;;20.03;51.33
15050;BME280;7622;42.724;23.250;2022-09-21T11:19:59;94739.38;;;19.70;53.19
15050;BME280;7622;42.724;23.250;2022-09-21T11:22:34;94737.59;;;19.83;51.13
15050;BME280;7622;42.724;23.250;2022-09-21T11:25:21;94747.63;;;18.91;55.58
15050;BME280;7622;42.724;23.250;2022-09-21T11:27:56;94745.84;;;18.98;57.23
15050;BME280;7622;42.724;23.250;2022-09-21T11:30:31;94750.34;;;19.04;56.87
15050;BME280;7622;42.724;23.250;2022-09-21T11:33:20;94750.53;;;19.03;57.65
15050;BME280;7622;42.724;23.250;2022-09-21T11:35:59;94740.53;;;18.92;58.82
15050;BME280;7622;42.724;23.250;2022-09-21T11:38:38;94739.09;;;18.19;63.88
15050;BME280;7622;42.724;23.250;2022-09-21T11:44:16;94748.66;;;18.05;65.82
15050;BME280;7622;42.724;23.250;2022-09-21T11:46:50;94726.25;;;17.88;65.67
15050;BME280;7622;42.724;23.250;2022-09-21T11:49:54;94756.56;;;17.84;67.57
15050;BME280;7622;42.724;23.250;2022-09-21T11:52:35;94735.72;;;18.03;65.57
15050;BME280;7622;42.724;23.250;2022-09-21T11:55:35;94762.94;;;17.96;66.64
15050;BME280;7622;42.724;23.250;2022-09-21T11:58:11;94757.66;;;17.45;75.68
15050;BME280;7622;42.724;23.250;2022-09-21T12:00:51;94763.91;;;17.29;68.57
15050;BME280;7622;42.724;23.250;2022-09-21T12:03:44;94763.38;;;17.19;67.54
15050;BME280;7622;42.724;23.250;2022-09-21T12:06:32;94762.91;;;17.16;68.79
15050;BME280;7622;42.724;23.250;2022-09-21T12:12:16;94766.00;;;17.19;68.77
15050;BME280;7622;42.724;23.250;2022-09-21T12:14:52;94765.91;;;16.98;70.21
15050;BME280;7622;42.724;23.250;2022-09-21T12:17:33;94757.09;;;16.76;72.17
15050;BME280;7622;42.724;23.250;2022-09-21T12:20:09;94747.44;;;16.54;73.52
15050;BME280;7622;42.724;23.250;2022-09-21T12:22:40;94755.28;;;16.17;76.30
15050;BME280;7622;42.724;23.250;2022-09-21T12:25:12;94753.75;;;16.45;73.84
15050;BME280;7622;42.724;23.250;2022-09-21T12:27:43;94759.56;;;16.78;71.20
15050;BME280;7622;42.724;23.250;2022-09-21T12:30:14;94756.03;;;16.85;71.06
15050;BME280;7622;42.724;23.250;2022-09-21T12:32:49;94757.94;;;16.54;73.47
15050;BME280;7622;42.724;23.250;2022-09-21T12:35:22;94758.91;;;16.53;75.65
15050;BME280;7622;42.724;23.250;2022-09-21T12:37:54;94763.16;;;16.54;74.71
15050;BME280;7622;42.724;23.250;2022-09-21T12:40:26;94746.34;;;16.71;70.09
15050;BME280;7622;42.724;23.250;2022-09-21T12:42:57;94756.13;;;16.77;70.75
15050;BME280;7622;42.724;23.250;2022-09-21T12:45:31;94761.59;;;16.68;73.18
15050;BME280;7622;42.724;23.250;2022-09-21T12:48:04;94749.97;;;16.85;70.56
15050;BME280;7622;42.724;23.250;2022-09-21T12:50:37;94746.56;;;16.99;71.02
15050;BME280;7622;42.724;23.250;2022-09-21T12:53:05;94757.50;;;17.03;70.04
15050;BME280;7622;42.724;23.250;2022-09-21T12:55:41;94757.50;;;17.03;67.63
15050;BME280;7622;42.724;23.250;2022-09-21T12:58:22;94753.13;;;16.95;68.58
15050;BME280;7622;42.724;23.250;2022-09-21T13:01:00;94757.75;;;16.78;67.69
15050;BME280;7622;42.724;23.250;2022-09-21T13:03:37;94748.03;;;16.64;66.22
15050;BME280;7622;42.724;23.250;2022-09-21T13:06:26;94746.13;;;16.35;70.26
15050;BME280;7622;42.724;23.250;2022-09-21T13:08:56;94740.56;;;16.15;72.47
15050;BME280;7622;42.724;23.250;2022-09-21T13:11:26;94740.38;;;15.94;75.42
15050;BME280;7622;42.724;23.250;2022-09-21T13:13:57;94744.06;;;16.31;73.97
15050;BME280;7622;42.724;23.250;2022-09-21T13:16:29;94739.41;;;16.33;73.32
15050;BME280;7622;42.724;23.250;2022-09-21T13:19:00;94735.31;;;16.38;71.97
15050;BME280;7622;42.724;23.250;2022-09-21T13:21:29;94733.16;;;16.57;72.59
15050;BME280;7622;42.724;23.250;2022-09-21T13:23:58;94724.44;;;16.41;73.41
15050;BME280;7622;42.724;23.250;2022-09-21T13:26:31;94728.41;;;16.60;72.38